createdAt,value
2023-05-27T00:00:35.519Z,8.00
2023-05-27T00:03:02.580Z,8.00
2023-05-27T00:05:29.763Z,7.90
2023-05-27T00:07:56.791Z,7.90
2023-05-27T00:10:23.747Z,7.80
2023-05-27T00:12:50.697Z,7.80
2023-05-27T00:15:18.704Z,7.80
2023-05-27T00:17:45.618Z,7.70
2023-05-27T00:20:14.030Z,7.70
2023-05-27T00:22:41.734Z,7.70
2023-05-27T00:25:09.075Z,7.70
2023-05-27T00:27:36.241Z,7.60
2023-05-27T00:30:03.971Z,7.50
2023-05-27T00:32:30.947Z,7.40
2023-05-27T00:34:57.930Z,7.30
2023-05-27T00:37:24.808Z,7.20
2023-05-27T00:39:51.679Z,7.10
2023-05-27T00:42:18.713Z,7.20
2023-05-27T00:44:45.653Z,7.20
2023-05-27T00:47:12.555Z,7.20
2023-05-27T00:49:40.145Z,7.10
2023-05-27T00:52:07.239Z,7.10
2023-05-27T00:54:34.300Z,7.00
2023-05-27T00:57:03.567Z,6.90
2023-05-27T00:59:30.558Z,7.00
2023-05-27T01:01:57.448Z,6.90
2023-05-27T01:04:26.188Z,6.90
2023-05-27T01:07:10.118Z,6.90
2023-05-27T01:09:45.826Z,6.90
2023-05-27T01:12:25.025Z,6.90
2023-05-27T01:14:55.462Z,6.80
2023-05-27T01:17:24.729Z,6.80
2023-05-27T01:19:52.647Z,6.70
2023-05-27T01:22:20.849Z,6.60
2023-05-27T01:24:47.771Z,6.50
2023-05-27T01:27:16.434Z,6.50
2023-05-27T01:29:43.928Z,6.50
2023-05-27T01:32:28.854Z,6.50
2023-05-27T01:35:05.077Z,6.50
2023-05-27T01:37:38.219Z,6.50
2023-05-27T01:40:08.159Z,6.50
2023-05-27T01:42:39.009Z,6.40
2023-05-27T01:45:08.598Z,6.30
2023-05-27T01:47:36.020Z,6.20
2023-05-27T01:50:03.559Z,6.10
2023-05-27T01:52:30.516Z,6.10
2023-05-27T01:54:57.458Z,5.90
2023-05-27T01:57:26.501Z,5.90
2023-05-27T01:59:53.867Z,6.00
2023-05-27T02:02:20.808Z,5.90
2023-05-27T02:04:47.782Z,5.90
2023-05-27T02:07:14.767Z,5.90
2023-05-27T02:09:41.762Z,5.90
2023-05-27T02:12:08.859Z,5.90
2023-05-27T02:14:39.649Z,5.90
2023-05-27T02:17:07.733Z,5.90
2023-05-27T02:19:35.018Z,5.90
2023-05-27T02:22:02.083Z,5.90
2023-05-27T02:24:29.052Z,5.80
2023-05-27T02:26:56.015Z,5.70
2023-05-27T02:29:22.950Z,5.60
2023-05-27T02:31:49.908Z,5.60
2023-05-27T02:34:17.248Z,5.60
2023-05-27T02:36:44.272Z,5.60
2023-05-27T02:39:11.612Z,5.60
2023-05-27T02:41:38.541Z,5.50
2023-05-27T02:44:06.969Z,5.60
2023-05-27T02:46:34.040Z,5.50
2023-05-27T02:49:01.166Z,5.60
2023-05-27T02:51:29.814Z,5.60
2023-05-27T02:53:56.984Z,5.50
2023-05-27T02:56:23.935Z,5.40
2023-05-27T02:58:50.880Z,5.40
2023-05-27T03:01:17.920Z,5.40
2023-05-27T03:03:44.984Z,5.30
2023-05-27T03:06:12.149Z,5.20
2023-05-27T03:08:39.004Z,5.20
2023-05-27T03:11:06.058Z,5.20
2023-05-27T03:13:33.002Z,5.10
2023-05-27T03:16:00.067Z,5.10
2023-05-27T03:18:27.046Z,5.10
2023-05-27T03:20:54.048Z,5.20
2023-05-27T03:23:21.215Z,5.30
2023-05-27T03:25:48.202Z,5.30
2023-05-27T03:28:15.910Z,5.40
2023-05-27T03:30:44.495Z,5.50
2023-05-27T03:33:11.774Z,5.50
2023-05-27T03:35:38.791Z,5.60
2023-05-27T03:38:06.021Z,5.70
2023-05-27T03:40:32.943Z,5.80
2023-05-27T03:42:59.974Z,5.90
2023-05-27T03:45:27.927Z,5.90
2023-05-27T03:47:54.854Z,6.00
2023-05-27T03:50:21.835Z,6.10
2023-05-27T03:52:48.831Z,6.20
2023-05-27T03:55:17.975Z,6.30
2023-05-27T03:57:44.911Z,6.40
2023-05-27T04:00:15.780Z,6.40
2023-05-27T04:02:42.774Z,6.50
2023-05-27T04:05:10.139Z,6.60
2023-05-27T04:07:37.026Z,6.70
2023-05-27T04:10:04.212Z,6.80
2023-05-27T04:12:31.067Z,6.90
2023-05-27T04:14:58.647Z,7.00
2023-05-27T04:17:25.553Z,7.10
2023-05-27T04:19:52.499Z,7.20
2023-05-27T04:22:19.462Z,7.30
2023-05-27T04:24:46.450Z,7.40
2023-05-27T04:27:14.066Z,7.40
2023-05-27T04:29:42.993Z,7.50
2023-05-27T04:32:11.164Z,7.60
2023-05-27T04:34:38.250Z,7.70
2023-05-27T04:37:05.294Z,7.80
2023-05-27T04:39:32.214Z,7.90
2023-05-27T04:41:59.313Z,8.00
2023-05-27T04:44:27.977Z,8.10
2023-05-27T04:46:56.242Z,8.20
2023-05-27T04:49:23.711Z,8.30
2023-05-27T04:51:50.960Z,8.40
2023-05-27T04:54:17.863Z,8.60
2023-05-27T04:56:44.757Z,8.70
2023-05-27T04:59:17.823Z,8.90
2023-05-27T05:02:11.004Z,9.00
2023-05-27T05:04:39.262Z,9.10
2023-05-27T05:07:06.151Z,9.20
2023-05-27T05:09:33.224Z,9.30
2023-05-27T05:12:00.167Z,9.40
2023-05-27T05:14:27.101Z,9.50
2023-05-27T05:16:54.054Z,9.60
2023-05-27T05:19:21.090Z,9.70
2023-05-27T05:21:48.070Z,9.80
2023-05-27T05:24:15.083Z,9.90
2023-05-27T05:26:42.005Z,10.10
2023-05-27T05:29:09.267Z,10.20
2023-05-27T05:31:36.249Z,10.40
2023-05-27T05:34:03.147Z,10.50
2023-05-27T05:36:30.363Z,10.60
2023-05-27T05:38:57.283Z,10.60
2023-05-27T05:41:24.140Z,10.60
2023-05-27T05:43:51.160Z,10.70
2023-05-27T05:46:18.074Z,10.70
2023-05-27T05:48:45.080Z,10.70
2023-05-27T05:51:12.111Z,10.80
2023-05-27T05:53:39.084Z,10.80
2023-05-27T05:56:06.396Z,10.80
2023-05-27T05:58:33.379Z,10.80
2023-05-27T06:01:00.289Z,10.90
2023-05-27T06:03:27.280Z,11.10
2023-05-27T06:05:54.240Z,11.10
2023-05-27T06:08:21.207Z,11.20
2023-05-27T06:10:48.198Z,11.30
2023-05-27T06:13:15.084Z,11.30
2023-05-27T06:15:41.957Z,11.50
2023-05-27T06:18:08.949Z,11.60
2023-05-27T06:20:35.853Z,11.70
2023-05-27T06:23:02.766Z,11.80
2023-05-27T06:25:29.767Z,11.90
2023-05-27T06:27:56.633Z,12.00
2023-05-27T06:30:23.612Z,12.10
2023-05-27T06:32:50.659Z,12.20
2023-05-27T06:35:17.590Z,12.30
2023-05-27T06:37:46.639Z,12.40
2023-05-27T06:40:15.027Z,12.40
2023-05-27T06:42:42.121Z,12.40
2023-05-27T06:45:09.607Z,12.50
2023-05-27T06:47:36.618Z,12.50
2023-05-27T06:50:03.880Z,12.50
2023-05-27T06:52:31.429Z,12.50
2023-05-27T06:54:58.356Z,12.50
2023-05-27T06:57:25.232Z,12.50
2023-05-27T06:59:52.083Z,12.60
2023-05-27T07:02:19.028Z,12.60
2023-05-27T07:04:45.942Z,12.60
2023-05-27T07:07:12.895Z,12.70
2023-05-27T07:09:39.815Z,12.80
2023-05-27T07:12:09.689Z,12.80
2023-05-27T07:14:37.289Z,12.90
2023-05-27T07:17:04.294Z,13.00
2023-05-27T07:19:31.460Z,13.00
2023-05-27T07:21:58.513Z,13.10
2023-05-27T07:24:25.419Z,13.10
2023-05-27T07:26:52.384Z,13.20
2023-05-27T07:29:19.444Z,13.30
2023-05-27T07:31:50.295Z,13.30
2023-05-27T07:34:17.315Z,13.40
2023-05-27T07:36:44.168Z,13.50
2023-05-27T07:39:11.109Z,13.60
2023-05-27T07:41:37.994Z,13.70
2023-05-27T07:44:06.003Z,13.70
2023-05-27T07:46:33.680Z,13.90
2023-05-27T07:49:01.180Z,13.90
2023-05-27T07:51:28.059Z,13.90
2023-05-27T07:53:56.045Z,14.00
2023-05-27T07:56:22.947Z,14.10
2023-05-27T07:58:49.850Z,14.10
2023-05-27T08:01:16.833Z,14.20
2023-05-27T08:03:44.110Z,14.40
2023-05-27T08:06:13.317Z,14.50
2023-05-27T08:08:41.069Z,14.60
2023-05-27T08:11:08.057Z,14.50
2023-05-27T08:13:34.920Z,14.60
2023-05-27T08:16:01.785Z,14.70
2023-05-27T08:18:28.645Z,14.70
2023-05-27T08:20:55.790Z,14.70
2023-05-27T08:23:23.064Z,14.80
2023-05-27T08:25:49.988Z,15.00
2023-05-27T08:28:17.730Z,15.10
2023-05-27T08:30:44.746Z,15.20
2023-05-27T08:33:11.645Z,15.20
2023-05-27T08:35:38.559Z,15.30
2023-05-27T08:38:05.930Z,15.30
2023-05-27T08:40:32.794Z,15.40
2023-05-27T08:42:59.748Z,15.50
2023-05-27T08:45:27.724Z,15.60
2023-05-27T08:47:55.052Z,15.70
2023-05-27T08:50:22.767Z,15.90
2023-05-27T08:52:54.306Z,16.00
2023-05-27T08:55:22.729Z,15.90
2023-05-27T08:57:56.647Z,15.90
2023-05-27T09:00:24.795Z,16.00
2023-05-27T09:02:52.018Z,16.10
2023-05-27T09:05:20.709Z,16.20
2023-05-27T09:07:47.612Z,16.30
2023-05-27T09:10:14.724Z,16.30
2023-05-27T09:12:46.912Z,16.50
2023-05-27T09:15:14.579Z,16.50
2023-05-27T09:17:45.560Z,16.60
2023-05-27T09:20:14.151Z,16.50
2023-05-27T09:22:42.548Z,16.50
2023-05-27T09:25:11.459Z,16.70
2023-05-27T09:27:39.870Z,16.80
2023-05-27T09:30:10.468Z,16.90
2023-05-27T09:32:37.640Z,17.00
2023-05-27T09:35:08.767Z,17.00
2023-05-27T09:37:36.104Z,17.10
2023-05-27T09:40:15.609Z,17.10
2023-05-27T09:42:50.233Z,17.20
2023-05-27T09:45:22.010Z,17.20
2023-05-27T09:47:51.876Z,17.20
2023-05-27T09:50:21.404Z,17.20
2023-05-27T09:55:20.976Z,17.40
2023-05-27T09:57:49.147Z,17.50
2023-05-27T10:00:17.175Z,17.60
2023-05-27T10:02:49.732Z,17.60
2023-05-27T10:05:18.446Z,17.60
2023-05-27T10:08:08.695Z,17.70
2023-05-27T10:10:34.330Z,17.70
2023-05-27T10:13:02.477Z,17.60
2023-05-27T10:15:31.508Z,17.60
2023-05-27T10:18:12.208Z,17.70
2023-05-27T10:20:40.956Z,17.80
2023-05-27T10:23:22.782Z,17.90
2023-05-27T10:25:51.930Z,17.90
2023-05-27T10:28:40.521Z,17.80
2023-05-27T10:31:18.756Z,17.90
2023-05-27T10:33:48.371Z,17.80
2023-05-27T10:36:33.139Z,17.80
2023-05-27T10:39:05.330Z,17.90
2023-05-27T10:41:51.948Z,17.90
2023-05-27T10:44:32.776Z,18.00
2023-05-27T10:47:05.025Z,18.00
2023-05-27T10:49:36.934Z,18.10
2023-05-27T10:52:14.673Z,18.20
2023-05-27T10:54:46.887Z,18.30
2023-05-27T10:57:14.729Z,18.40
2023-05-27T10:59:58.676Z,18.50
2023-05-27T11:02:33.745Z,18.60
2023-05-27T11:05:00.744Z,18.60
2023-05-27T11:07:28.896Z,18.70
2023-05-27T11:09:56.540Z,18.70
2023-05-27T11:12:25.221Z,18.90
2023-05-27T11:14:56.749Z,18.90
2023-05-27T11:17:24.763Z,18.90
2023-05-27T11:19:51.765Z,19.00
2023-05-27T11:22:19.594Z,19.00
2023-05-27T11:25:00.411Z,19.10
2023-05-27T11:27:35.102Z,19.20
2023-05-27T11:30:06.828Z,19.20
2023-05-27T11:32:36.429Z,19.30
2023-05-27T11:35:03.989Z,19.30
2023-05-27T11:37:36.246Z,19.30
2023-05-27T11:40:03.563Z,19.30
2023-05-27T11:42:33.736Z,19.40
2023-05-27T11:45:01.385Z,19.50
2023-05-27T11:47:28.317Z,19.50
2023-05-27T11:49:55.390Z,19.60
2023-05-27T11:52:27.043Z,19.60
2023-05-27T11:54:58.372Z,19.70
2023-05-27T11:57:25.959Z,19.70
2023-05-27T11:59:52.960Z,19.60
2023-05-27T12:02:22.366Z,19.60
2023-05-27T12:04:49.723Z,19.90
2023-05-27T12:07:20.519Z,19.90
2023-05-27T12:09:50.374Z,19.90
2023-05-27T12:12:19.696Z,19.90
2023-05-27T12:14:46.562Z,19.90
2023-05-27T12:17:13.450Z,19.90
2023-05-27T12:19:40.324Z,19.90
2023-05-27T12:22:07.217Z,19.80
2023-05-27T12:24:35.487Z,19.60
2023-05-27T12:27:03.251Z,19.70
2023-05-27T12:29:31.451Z,19.80
2023-05-27T12:31:58.645Z,19.80
2023-05-27T12:34:26.694Z,19.80
2023-05-27T12:36:53.606Z,19.80
2023-05-27T12:39:21.900Z,19.90
2023-05-27T12:41:48.984Z,19.90
2023-05-27T12:44:16.826Z,19.90
2023-05-27T12:46:44.120Z,19.90
2023-05-27T12:49:11.391Z,19.90
2023-05-27T12:51:39.506Z,19.90
2023-05-27T12:54:06.606Z,19.80
2023-05-27T12:56:33.503Z,19.90
2023-05-27T12:59:00.728Z,19.90
2023-05-27T13:01:27.746Z,19.90
2023-05-27T13:03:54.731Z,19.90
2023-05-27T13:06:21.846Z,19.90
2023-05-27T13:08:48.734Z,20.00
2023-05-27T13:11:15.829Z,20.00
2023-05-27T13:13:42.695Z,20.00
2023-05-27T13:16:09.751Z,20.00
2023-05-27T13:18:37.563Z,20.00
2023-05-27T13:21:04.793Z,20.00
2023-05-27T13:23:31.823Z,20.00
2023-05-27T13:25:58.718Z,20.00
2023-05-27T13:28:25.757Z,20.00
2023-05-27T13:30:53.230Z,20.00
2023-05-27T13:33:20.457Z,20.00
2023-05-27T13:35:47.332Z,20.00
2023-05-27T13:38:15.782Z,19.90
2023-05-27T13:40:42.784Z,19.90
2023-05-27T13:43:09.886Z,19.80
2023-05-27T13:45:36.819Z,19.80
2023-05-27T13:48:03.896Z,19.70
2023-05-27T13:50:32.607Z,19.80
2023-05-27T13:52:59.726Z,19.80
2023-05-27T13:55:26.665Z,19.90
2023-05-27T13:57:53.657Z,20.00
2023-05-27T14:00:21.105Z,20.00
2023-05-27T14:02:48.102Z,20.10
2023-05-27T14:05:15.073Z,20.10
2023-05-27T14:07:44.196Z,20.10
2023-05-27T14:10:11.747Z,20.10
2023-05-27T14:12:38.957Z,20.00
2023-05-27T14:15:06.688Z,20.10
2023-05-27T14:17:33.653Z,20.10
2023-05-27T14:20:01.160Z,20.10
2023-05-27T14:22:28.577Z,20.00
2023-05-27T14:24:55.834Z,20.00
2023-05-27T14:27:22.795Z,20.00
2023-05-27T14:29:49.668Z,20.10
2023-05-27T14:32:16.597Z,20.10
2023-05-27T14:34:43.521Z,20.20
2023-05-27T14:37:10.478Z,20.30
2023-05-27T14:39:37.502Z,20.30
2023-05-27T14:42:04.614Z,20.40
2023-05-27T14:44:34.985Z,20.40
2023-05-27T14:47:01.966Z,20.50
2023-05-27T14:49:29.032Z,20.60
2023-05-27T14:51:56.019Z,20.60
2023-05-27T14:54:22.943Z,20.60
2023-05-27T14:56:49.879Z,20.50
2023-05-27T14:59:16.760Z,20.50
2023-05-27T15:01:44.711Z,20.50
2023-05-27T15:04:11.701Z,20.50
2023-05-27T15:06:38.600Z,20.50
2023-05-27T15:09:05.481Z,20.50
2023-05-27T15:11:32.389Z,20.60
2023-05-27T15:14:01.128Z,20.70
2023-05-27T15:16:28.962Z,20.60
2023-05-27T15:18:56.688Z,20.50
2023-05-27T15:21:23.597Z,20.40
2023-05-27T15:23:50.640Z,20.50
2023-05-27T15:26:17.599Z,20.20
2023-05-27T15:28:44.544Z,20.30
2023-05-27T15:31:11.498Z,20.50
2023-05-27T15:33:40.842Z,20.70
2023-05-27T15:36:08.826Z,20.80
2023-05-27T15:38:35.743Z,20.60
2023-05-27T15:41:02.628Z,20.20
2023-05-27T15:43:29.565Z,20.40
2023-05-27T15:48:29.715Z,20.40
2023-05-27T15:50:57.196Z,20.50
2023-05-27T15:53:24.057Z,20.40
2023-05-27T15:55:51.568Z,20.00
2023-05-27T15:58:19.051Z,20.20
2023-05-27T16:00:46.537Z,20.30
2023-05-27T16:03:13.510Z,20.10
2023-05-27T16:05:40.712Z,20.00
2023-05-27T16:08:07.580Z,19.90
2023-05-27T16:10:44.283Z,20.10
2023-05-27T16:13:11.292Z,19.60
2023-05-27T16:15:38.194Z,19.70
2023-05-27T16:18:05.209Z,19.70
2023-05-27T16:20:32.184Z,19.60
2023-05-27T16:22:59.093Z,19.40
2023-05-27T16:25:25.975Z,19.20
2023-05-27T16:27:52.892Z,19.10
2023-05-27T16:30:19.793Z,19.10
2023-05-27T16:32:46.706Z,18.80
2023-05-27T16:35:13.719Z,18.50
2023-05-27T16:37:41.074Z,18.50
2023-05-27T16:40:09.591Z,18.50
2023-05-27T16:42:36.766Z,18.10
2023-05-27T16:45:07.878Z,17.70
2023-05-27T16:47:35.384Z,17.80
2023-05-27T16:50:03.155Z,17.80
2023-05-27T16:52:30.224Z,17.80
2023-05-27T16:54:57.134Z,17.80
2023-05-27T16:57:24.025Z,17.80
2023-05-27T16:59:50.934Z,17.70
2023-05-27T17:02:17.866Z,17.50
2023-05-27T17:04:45.475Z,17.50
2023-05-27T17:07:12.579Z,17.40
2023-05-27T17:09:39.479Z,17.40
2023-05-27T17:12:06.618Z,17.30
2023-05-27T17:14:33.844Z,17.20
2023-05-27T17:17:01.777Z,17.20
2023-05-27T17:19:28.912Z,17.20
2023-05-27T17:21:56.056Z,17.10
2023-05-27T17:24:22.947Z,17.00
2023-05-27T17:26:49.855Z,17.00
2023-05-27T17:29:16.789Z,17.10
2023-05-27T17:31:43.680Z,17.10
2023-05-27T17:34:10.708Z,17.00
2023-05-27T17:36:38.112Z,16.90
2023-05-27T17:39:05.142Z,16.90
2023-05-27T17:41:32.235Z,16.90
2023-05-27T17:43:59.103Z,16.80
2023-05-27T17:46:26.441Z,16.80
2023-05-27T17:48:53.336Z,16.80
2023-05-27T17:51:20.205Z,16.80
2023-05-27T17:53:51.485Z,16.70
2023-05-27T17:56:18.397Z,16.80
2023-05-27T17:58:45.452Z,16.70
2023-05-27T18:01:12.527Z,16.60
2023-05-27T18:03:39.716Z,16.50
2023-05-27T18:06:07.068Z,16.50
2023-05-27T18:08:34.830Z,16.50
2023-05-27T18:11:03.491Z,16.40
2023-05-27T18:13:30.585Z,16.50
2023-05-27T18:15:57.542Z,16.30
2023-05-27T18:18:24.526Z,16.30
2023-05-27T18:20:54.063Z,16.30
2023-05-27T18:23:21.364Z,16.30
2023-05-27T18:25:48.265Z,16.20
2023-05-27T18:28:15.358Z,16.20
2023-05-27T18:30:42.269Z,16.20
2023-05-27T18:33:09.357Z,16.20
2023-05-27T18:35:38.058Z,16.20
2023-05-27T18:38:05.920Z,16.10
2023-05-27T18:40:34.852Z,16.10
2023-05-27T18:43:03.105Z,16.10
2023-05-27T18:45:53.018Z,16.10
2023-05-27T18:48:20.059Z,16.00
2023-05-27T18:50:47.703Z,16.00
2023-05-27T18:53:14.986Z,16.00
2023-05-27T18:55:41.989Z,15.90
2023-05-27T18:58:10.368Z,15.90
2023-05-27T19:00:37.834Z,15.90
2023-05-27T19:03:06.216Z,15.80
2023-05-27T19:05:33.127Z,15.70
2023-05-27T19:08:00.192Z,15.70
2023-05-27T19:10:27.393Z,15.50
2023-05-27T19:12:54.938Z,15.50
2023-05-27T19:15:22.430Z,15.40
2023-05-27T19:17:49.412Z,15.40
2023-05-27T19:20:16.561Z,15.40
2023-05-27T19:22:43.573Z,15.40
2023-05-27T19:25:10.659Z,15.30
2023-05-27T19:27:37.584Z,15.30
2023-05-27T19:30:05.456Z,15.20
2023-05-27T19:32:32.378Z,15.20
2023-05-27T19:34:59.268Z,15.20
2023-05-27T19:37:26.258Z,15.20
2023-05-27T19:39:54.824Z,15.20
2023-05-27T19:42:21.964Z,15.10
2023-05-27T19:44:48.866Z,15.10
2023-05-27T19:47:16.174Z,15.00
2023-05-27T19:49:43.221Z,15.00
2023-05-27T19:52:10.118Z,15.00
2023-05-27T19:54:36.978Z,15.00
2023-05-27T19:57:04.435Z,14.90
2023-05-27T19:59:31.374Z,14.90
2023-05-27T20:01:58.306Z,14.90
2023-05-27T20:04:25.190Z,14.80
2023-05-27T20:06:52.102Z,14.80
2023-05-27T20:09:19.046Z,14.70
2023-05-27T20:11:45.991Z,14.70
2023-05-27T20:14:12.905Z,14.60
2023-05-27T20:16:39.882Z,14.60
2023-05-27T20:19:06.831Z,14.50
2023-05-27T20:21:34.148Z,14.50
2023-05-27T20:24:02.123Z,14.50
2023-05-27T20:26:29.872Z,14.40
2023-05-27T20:28:56.747Z,14.40
2023-05-27T20:31:24.096Z,14.30
2023-05-27T20:33:51.318Z,14.30
2023-05-27T20:36:18.313Z,14.30
2023-05-27T20:38:45.287Z,14.30
2023-05-27T20:41:12.229Z,14.30
2023-05-27T20:43:39.417Z,14.30
2023-05-27T20:46:07.415Z,14.20
2023-05-27T20:48:34.350Z,14.20
2023-05-27T20:51:01.268Z,14.20
2023-05-27T20:53:28.178Z,14.10
2023-05-27T20:55:55.061Z,14.10
2023-05-27T20:58:22.029Z,14.00
2023-05-27T21:00:48.900Z,14.00
2023-05-27T21:03:15.907Z,14.00
2023-05-27T21:05:43.195Z,14.00
2023-05-27T21:08:10.098Z,13.90
2023-05-27T21:10:36.978Z,13.90
2023-05-27T21:13:03.879Z,13.80
2023-05-27T21:15:30.986Z,13.80
2023-05-27T21:17:57.988Z,13.80
2023-05-27T21:20:25.050Z,13.70
2023-05-27T21:22:53.212Z,13.70
2023-05-27T21:25:20.380Z,13.60
2023-05-27T21:27:47.429Z,13.50
2023-05-27T21:30:15.873Z,13.50
2023-05-27T21:32:42.865Z,13.40
2023-05-27T21:35:09.847Z,13.30
2023-05-27T21:37:36.749Z,13.20
2023-05-27T21:40:03.767Z,13.20
2023-05-27T21:42:33.164Z,13.20
2023-05-27T21:45:00.185Z,13.20
2023-05-27T21:47:27.143Z,13.20
2023-05-27T21:49:54.161Z,13.20
2023-05-27T21:52:24.897Z,13.10
2023-05-27T21:54:53.771Z,13.10
2023-05-27T21:57:21.262Z,13.00
2023-05-27T21:59:48.792Z,13.00
2023-05-27T22:02:16.161Z,13.00
2023-05-27T22:04:45.129Z,13.00
2023-05-27T22:07:12.018Z,13.00
2023-05-27T22:09:41.254Z,13.00
2023-05-27T22:12:08.519Z,12.90
2023-05-27T22:14:35.448Z,12.90
2023-05-27T22:17:02.919Z,12.90
2023-05-27T22:19:29.827Z,12.90
2023-05-27T22:21:56.818Z,12.80
2023-05-27T22:24:23.734Z,12.80
2023-05-27T22:26:50.666Z,12.80
2023-05-27T22:29:17.545Z,12.80
2023-05-27T22:31:44.501Z,12.70
2023-05-27T22:34:11.417Z,12.70
2023-05-27T22:36:38.877Z,12.60
2023-05-27T22:39:05.906Z,12.60
2023-05-27T22:41:32.763Z,12.50
2023-05-27T22:43:59.689Z,12.50
2023-05-27T22:46:26.679Z,12.50
2023-05-27T22:48:53.732Z,12.50
2023-05-27T22:51:20.767Z,12.50
2023-05-27T22:53:47.639Z,12.40
2023-05-27T22:56:15.675Z,12.40
2023-05-27T22:58:43.145Z,12.30
2023-05-27T23:01:10.557Z,12.30
2023-05-27T23:03:37.817Z,12.20
2023-05-27T23:06:05.198Z,12.10
2023-05-27T23:08:32.283Z,12.10
2023-05-27T23:10:59.261Z,12.10
2023-05-27T23:13:26.449Z,12.00
2023-05-27T23:15:57.904Z,12.00
2023-05-27T23:18:24.914Z,11.90
2023-05-27T23:20:51.934Z,11.90
2023-05-27T23:23:18.937Z,11.90
2023-05-27T23:25:45.837Z,11.80
2023-05-27T23:28:12.732Z,11.80
2023-05-27T23:30:39.651Z,11.70
2023-05-27T23:33:06.651Z,11.60
2023-05-27T23:35:33.653Z,11.60
2023-05-27T23:38:01.125Z,11.60
2023-05-27T23:40:28.093Z,11.50
2023-05-27T23:42:55.073Z,11.50
2023-05-27T23:45:22.010Z,11.40
2023-05-27T23:47:49.011Z,11.40
2023-05-27T23:50:16.021Z,11.40
2023-05-27T23:52:42.999Z,11.40
2023-05-27T23:55:10.052Z,11.30
2023-05-27T23:57:37.054Z,11.30
